Tiempo atmosférico en la estación meteorológica de Alajar, Huelva (572 m.)



Fecha
DESCASC
Temp. máxima en grados centígrados (hora)
DESCASC
Temp. mínima en grados centígrados (hora)
DESCASC
Temp. media en grados centígrados
DESCASC
Racha de viento máxima en m/sg (hora)
DESCASC
Velocidad máxima media en intervalos de 10 minutos(hora)
DESCASC
Precipitaciones diarias en mm
DESCASC
Precipitaciones de 00:00 a 06:00 en mm
DESCASC
Precipitaciones de 06:00 a 12:00 en mm
DESCASC
Precipitaciones de 12:00 a 18:00 en mm
DESCASC
Precipitaciones de 18:00 a 24:00 en mm
DESCASC
21-02-2019 17.4 (15:10) 7.3 (06:30) 12.3 7.5 (11:00) 4.44 (17:20) 0 0 0 0 0
20-02-2019 17.2 (15:30) 6.3 (07:20) 11.8 5.83 (15:40) 3.61 (15:50) 0 0 0 0 0
19-02-2019 16.2 (13:50) 8 (07:40) 12.1 8.89 (15:20) 5.56 (15:20) 2.2 0 0 2.2 0
18-02-2019 13.3 (16:10) 8.4 (23:30) 10.8 8.89 (03:00) 4.44 (03:00) 0 0 0 0 0
17-02-2019 16.7 (15:50) 5.2 (00:00) 11 9.72 (23:30) 5 (15:20) 0 0 0 0 0
16-02-2019 18.2 (15:10) 8.5 (00:00) 13.4 11.94 (12:50) 6.11 (12:10) 0 0 0 0 0
15-02-2019 19.4 (16:20) 7.1 (00:00) 13.2 7.5 (10:00) 3.89 (10:00) 0 0 0 0 0
14-02-2019 17.8 (15:30) 7.4 (00:00) 12.6 7.78 (14:30) 5.28 (15:50) 0 0 0 0 0
13-02-2019 17.3 (15:10) 7.2 (00:00) 12.2 8.06 (15:20) 4.44 (12:50) 0 0 0 0 0
12-02-2019 18 (14:50) 6.9 (00:00) 12.5 6.39 (09:40) 3.61 (11:00) 0 0 0 0 0
11-02-2019 18.6 (15:40) 6.9 (00:00) 12.8 9.17 (19:20) 6.11 (17:50) 0.2 0.2 0 0 0
10-02-2019 14.6 (15:10) 4.8 (00:00) 9.7 9.44 (10:00) 5.28 (10:00) 0 0 0 0 0
09-02-2019 15.8 (14:40) 4.7 (00:00) 10.3 6.67 (14:40) 3.61 (14:20) 0 0 0 0 0
08-02-2019 17.6 (14:50) 6 (00:00) 11.8 10.56 (22:50) 6.67 (21:40) 0 0 0 0 0
07-02-2019 18.9 (14:30) 9.4 (00:00) 14.1 11.67 (02:00) 7.78 (02:10) 0 0 0 0 0
06-02-2019 19.4 (14:30) 7 (00:00) 13.2 9.72 (22:00) 6.39 (21:20) 0 0 0 0 0
05-02-2019 19.2 (15:10) 6.3 (00:00) 12.8 6.11 (03:10) 3.33 (03:10) 0 0 0 0 0
04-02-2019 -- (--) -- (--) -- -- (--) -- (--) 0 0 0 0 0
03-02-2019 11 (15:20) 2 (00:00) 6.5 12.5 (12:20) 7.22 (12:10) 0 0 0 0 0
02-02-2019 8.9 (15:20) 3.5 (00:00) 6.2 -- (--) -- (--) 0 0 0 0 0
01-02-2019 11.5 (03:10) 3.1 (00:00) 7.3 -- (--) -- (--) -- -- -- 0 0
31-01-2019 11.4 (14:20) 9.3 (00:00) 10.3 11.39 (19:40) 6.11 (19:40) -- -- -- -- --
30-01-2019 10.3 (13:00) 6.8 (00:00) 8.6 10.28 (12:00) 6.39 (12:40) -- -- -- -- --
29-01-2019 11.5 (14:20) 6.9 (00:00) 9.2 -- (--) -- (--) -- -- -- -- --
28-01-2019 10.8 (16:00) 3.6 (00:00) 7.2 -- (--) -- (--) 0 0 0 0 0
27-01-2019 10.8 (15:40) 4.5 (00:00) 7.7 15.56 (22:30) 9.44 (22:40) 0 0 0 0 0
26-01-2019 19.6 (15:20) 8.4 (00:00) 14 6.67 (23:10) 5 (23:10) 0 0 0 0 0
25-01-2019 20.4 (16:50) 8.2 (00:00) 14.3 13.61 (01:00) 9.17 (00:40) 0 0 0 0 0
24-01-2019 16.2 (16:00) 9.2 (00:00) 12.7 -- (--) -- (--) 0 0 0 0 0

Gráficas

Temp. máximas Temp. mínimas Temp. medias Precipitaciones Rachas de viento máximas Velocidades máximas media en intervalos de 10 minutos

Datos horarios

Fecha y hora oficial Temperatura (ºC) Velocidad del viento (km/h) Dirección del viento Racha (km/h) Dirección de racha Precipitación (mm) Presión (hPa) Tendencia (hPa) Humedad (%)
2019-02-22 23:00:00 9.5 2 Noroeste 12 Nordeste 0 962.7 0.6 70
2019-02-22 22:00:00 9.7 5 Este 13 Nordeste 0 962.5 0.8 69
2019-02-22 21:00:00 10.9 6 Nordeste 12 Nordeste 0 962.3 0.9 63
2019-02-22 20:00:00 12.1 8 Nordeste 11 Nordeste 0 962.1 0.7 58
2019-02-22 19:00:00 15.6 4 Sudoeste 18 Sudoeste 0 961.7 0.3 45
2019-02-22 18:00:00 18.3 11 Sudoeste 18 Sur 0 961.4 0.1 37
2019-02-22 17:00:00 19 8 Sur 19 Sur 0 961.4 -0.3 34
2019-02-22 16:00:00 19.4 9 Sur 19 Sur 0 961.4 -0.9 34
2019-02-22 15:00:00 19 9 Sudeste 22 Sur 0 961.3 -1 37
2019-02-22 14:00:00 18.4 12 Sur 25 Sudeste 0 961.7 -0.7 38
2019-02-22 13:00:00 17.4 10 Sur 25 Sur 0 962.3 0.3 38
2019-02-22 12:00:00 15.9 12 Sudeste 20 Sur 0 962.3 0.7 42
2019-02-22 11:00:00 13.8 9 Sudeste 24 Sudeste 0 962.4 1.5 46
2019-02-22 10:00:00 11.8 11 Sudeste 24 Este 0 962 1.1 52
2019-02-22 09:00:00 10.2 6 Sudeste 21 Este 0 961.6 0.8 59
2019-02-22 08:00:00 9.5 8 Este 22 Este 0 960.9 -0.3 57
2019-02-22 07:00:00 9.1 11 Este 22 Este 0 960.9 -0.7 63
2019-02-22 06:00:00 9.6 12 Este 20 Este 0 960.8 -0.9 60
2019-02-22 05:00:00 9.1 8 Sudeste 15 Este 0 961.2 -0.4 71
2019-02-22 04:00:00 7.3 7 Nordeste 12 Nordeste 0 961.6 0.2 84
2019-02-22 03:00:00 7.4 8 Este 14 Este 0 961.7 -0.1 83
2019-02-22 02:00:00 8.7 9 Este 15 Este 0 961.6 0.1 75
2019-02-22 01:00:00 8.5 11 Este 13 Este 0 961.4 0.4 76
2019-02-22 00:00:00 8.9 9 Este 12 Este 0 961.8 1.1 74
2019-02-21 23:00:00 10.5 7 Este 14 Este 0 961.5 1.3 66
2019-02-21 22:00:00 10.4 8 Este 15 Este 0 961 2.2 69
2019-02-21 21:00:00 10.6 5 Nordeste 11 Este 0 960.7 2.3 69
2019-02-21 20:00:00 12.6 5 Este 20 Sudeste 0 960.2 1.6 59
2019-02-21 19:00:00 14 10 Sudeste 22 Sudeste 0 958.8 0.1 54
2019-02-21 18:00:00 15.9 12 Sur 26 Sur 0 958.4 -0.1 50
2019-02-21 17:00:00 16.7 14 Sur 24 Sur 0 958.6 0.2 43
2019-02-21 16:00:00 17 12 Sudeste 26 Sudeste 0 958.7 -0.1 41
2019-02-21 15:00:00 16.9 11 Sur 26 Sur 0 958.5 -0.1 45
2019-02-21 14:00:00 15.9 14 Sur 24 Sudoeste 0 958.4 0.2 50
2019-02-21 13:00:00 15.6 10 Sur 24 Sur 0 958.8 0.8 54
2019-02-21 12:00:00 14.3 14 Sudeste 25 Sudeste 0 958.6 1.3 53
2019-02-21 11:00:00 12.4 13 Sudeste 27 Sudeste 0 958.2 1.8 60
2019-02-21 10:00:00 10.3 8 Sudeste 19 Este 0 958 1.8 68
2019-02-21 09:00:00 8.4 4 Sudeste 14 Nordeste 0 957.3 1 73
2019-02-21 08:00:00 7.6 7 Este 23 Este 0 956.4 0.3 77
2019-02-21 07:00:00 7.6 11 Este 21 Este 0 956.2 -0.1 85
2019-02-21 06:00:00 8 11 Este 19 Este 0 956.3 0 77
2019-02-21 05:00:00 8.4 8 Este 18 Este 0 956.1 -0.4 80
2019-02-21 04:00:00 8.5 8 Este 18 Este 0 956.3 0 83
2019-02-21 03:00:00 9.1 9 Este 20 Este 0 956.3 -0.2 74
2019-02-21 02:00:00 9.9 9 Este 16 Este 0 956.5 0 63
2019-02-21 01:00:00 9.8 10 Este 20 Este 0 956.3 0.1 73
2019-02-21 00:00:00 9.1 8 Este 15 Este 0 956.5 0.6 84
2019-02-20 23:00:00 8.8 8 Este 15 Este 0 956.5 0.8 86
2019-02-20 22:00:00 9.6 7 Nordeste 11 Nordeste 0 956.2 1.2 79
2019-02-20 21:00:00 10.1 6 Nordeste 12 Este 0 955.9 1 78
2019-02-20 20:00:00 10.7 7 Nordeste 10 Nordeste 0 955.7 0.9 76
2019-02-20 19:00:00 12.7 5 Este 14 Sur 0 955 0.1 67
2019-02-20 18:00:00 15.5 6 Sudeste 19 Sudeste 0 954.9 -0.3 52
2019-02-20 17:00:00 16.7 11 Sur 19 Sur 0 954.8 -0.8 50
2019-02-20 16:00:00 16.7 10 Sur 21 Sur 0 954.9 -1.1 50
2019-02-20 15:00:00 16.7 6 Sudoeste 17 Sudeste 0 955.2 -0.7 52
2019-02-20 14:00:00 14.7 10 Sur 18 Sur 0 955.6 0.1 64
2019-02-20 13:00:00 15.5 6 Sur 20 Sur 0 956 0.8 58
2019-02-20 12:00:00 14.2 8 Sur 17 Sur 0 955.9 1.3 72
2019-02-20 11:00:00 12.2 6 Sudeste 12 Sudeste 0 955.5 1.8 73
2019-02-20 10:00:00 9.9 3 Sudeste 9 Este 0 955.2 1.8 93
2019-02-20 09:00:00 7.3 7 Nordeste 10 Nordeste 0 954.6 1.6 94
2019-02-20 08:00:00 7 8 Nordeste 12 Nordeste 0 953.7 0.8 94
2019-02-20 07:00:00 6.5 6 Nordeste 9 Nordeste 0 953.4 0.2 98
2019-02-20 06:00:00 7.4 8 Nordeste 12 Nordeste 0 953 -0.5 91
2019-02-20 05:00:00 6.5 0 Calma 7 Nordeste 0 952.9 -0.6 97
2019-02-20 04:00:00 6.8 2 Sudoeste 12 Nordeste 0 953.2 -0.3 96
2019-02-20 03:00:00 7.1 3 Norte 11 Nordeste 0 953.5 -0.1 95
2019-02-20 02:00:00 7.9 3 Norte 9 Nordeste 0 953.5 -0.2 94
2019-02-20 01:00:00 8.8 7 Nordeste 14 Nordeste 0 953.5 0.4 92
2019-02-20 00:00:00 9 4 Nordeste 13 Oeste 0 953.6 0.8 94
2019-02-19 23:00:00 9 8 Oeste 19 Nordeste 0 953.7 1.2 96
2019-02-19 22:00:00 8.9 3 Nordeste 9 Nordeste 0 953.1 0.9 95
2019-02-19 21:00:00 9.1 3 Oeste 9 Nordeste 0 952.8 1 93
2019-02-19 20:00:00 9.5 4 Oeste 21 Norte 0 952.5 0.8 95
2019-02-19 19:00:00 9.9 6 Norte 15 Norte 0 952.2 0.3 93
2019-02-19 18:00:00 10.4 7 Noroeste 18 Norte 0.2 951.8 -0.1 94
2019-02-19 17:00:00 10.1 11 Nordeste 15 Norte 1.2 951.7 -0.5 98
2019-02-19 16:00:00 10.8 6 Nordeste 32 Norte 0.8 951.9 -1 88
2019-02-19 15:00:00 13.8 12 Noroeste 21 Norte 0 951.9 -1.1 59
2019-02-19 14:00:00 15.9 6 Oeste 19 Sudoeste 0 952.2 -0.8 62
2019-02-19 13:00:00 15.4 5 Sudoeste 12 Sudoeste 0 952.9 0 59
2019-02-19 12:00:00 13.8 7 Sudoeste 11 Sudoeste 0 953 0.9 70
2019-02-19 11:00:00 12.9 5 Sudoeste 10 Sur 0 953 1 72
2019-02-19 10:00:00 11.1 4 Sudoeste 7 Sudoeste 0 952.9 0.9 84
2019-02-19 09:00:00 8.8 5 Este 9 Nordeste 0 952.1 0.2 97
2019-02-19 08:00:00 8.2 4 Nordeste 8 Noroeste 0 952 0.1 98
2019-02-19 07:00:00 8.4 0 Calma 11 Nordeste 0 952 -0.4 98
2019-02-19 06:00:00 8.4 6 Nordeste 10 Nordeste 0 951.9 -0.7 98
2019-02-19 05:00:00 8.8 8 Nordeste 10 Nordeste 0 951.9 -0.7 98
2019-02-19 04:00:00 9.2 4 Noroeste 9 Noroeste 0 952.4 0.3 97
2019-02-19 03:00:00 9.2 3 Noroeste 9 Oeste 0 952.6 0.7 95
2019-02-19 02:00:00 9.7 4 Oeste 14 Oeste 0 952.6 1.1 83
2019-02-19 01:00:00 9.3 2 Sudeste 7 Este 0 952.1 1.3 77
2019-02-19 00:00:00 9.3 3 Norte 9 Nordeste 0 951.9 1.6 74
2019-02-18 23:00:00 8.9 6 Nordeste 8 Nordeste 0 951.5 1.7 74
2019-02-18 22:00:00 9.4 5 Nordeste 8 Este 0 950.8 1.7 75
2019-02-18 21:00:00 10.2 3 Nordeste 8 Este 0 950.3 1.6 77
2019-02-18 20:00:00 10.2 4 Este 12 Este 0 949.8 1.2 77
2019-02-18 19:00:00 10.7 6 Este 15 Este 0 949.1 0.7 77
2019-02-18 18:00:00 12 8 Este 17 Sudeste 0 948.7 0 70
2019-02-18 17:00:00 12.6 11 Sudeste 21 Sudeste 0 948.6 -0.4 66
2019-02-18 16:00:00 13.1 10 Sudeste 21 Sudeste 0 948.4 -1.1 66
2019-02-18 15:00:00 11.9 15 Sur 23 Sur 0 948.7 -0.8 69
2019-02-18 14:00:00 11.8 11 Sur 24 Sur 0 949 -0.3 70
2019-02-18 13:00:00 10.5 9 Sudeste 19 Sudeste 0 949.5 0.5 73
2019-02-18 12:00:00 9.9 8 Sudeste 18 Sudeste 0 949.5 0.8 76
2019-02-18 11:00:00 9.6 11 Sudeste 24 Sur 0 949.3 1 76
2019-02-18 10:00:00 9.4 12 Sudeste 27 Sudeste 0 949 0.5 84
2019-02-18 09:00:00 9 12 Sudeste 21 Sudeste 0 948.7 0.1 88
2019-02-18 08:00:00 9 10 Sudeste 26 Sudeste 0 948.3 -0.7 88
2019-02-18 07:00:00 8.9 9 Sudeste 24 Sur 0 948.5 -1.2 85
2019-02-18 06:00:00 9 11 Sur 29 Sudeste 0 948.6 -1.6 83
2019-02-18 05:00:00 9.1 13 Sur 25 Sur 0 949 -1.6 84
2019-02-18 04:00:00 9.6 13 Sur 31 Sur 0 949.7 -1.3 81
2019-02-18 03:00:00 9.7 16 Sur 32 Sur 0 950.2 -1.4 82
2019-02-18 02:00:00 10 6 Sudoeste 23 Sudeste 0 950.6 -1.5 81
2019-02-18 01:00:00 9.9 10 Sur 28 Sudeste 0 951 -1 85
2019-02-18 00:00:00 10.1 16 Sur 35 Sur 0 951.6 -0.7 94
2019-02-17 23:00:00 10.5 10 Sur 24 Sudoeste 0 952.1 -0.2 94
2019-02-17 22:00:00 10.8 9 Sur 17 Sur 0 952 0.3 89
2019-02-17 21:00:00 10.9 5 Sudoeste 26 Sudoeste 0 952.3 0.6 88
2019-02-17 20:00:00 11.5 14 Sudoeste 26 Sudoeste 0 952.3 0.3 84
2019-02-17 19:00:00 13 13 Sudoeste 27 Sur 0 951.7 -0.6 69
2019-02-17 18:00:00 14.2 12 Sur 27 Sur 0 951.7 -1.1 58
2019-02-17 17:00:00 15.2 14 Sur 34 Sudoeste 0 952 -1.7 50
2019-02-17 16:00:00 16.3 13 Sur 31 Sudeste 0 952.3 -2.3 42
2019-02-17 15:00:00 16.4 13 Sur 28 Sur 0 952.8 -2.1 45
2019-02-17 14:00:00 16.2 14 Sudoeste 28 Sudoeste 0 953.7 -1 48
2019-02-17 13:00:00 14.9 10 Sur 28 Sur 0 954.6 -0.4 51
2019-02-17 12:00:00 13.7 12 Sur 23 Sudeste 0 954.9 0.1 55
2019-02-17 11:00:00 11.9 12 Sur 22 Sur 0 954.7 0.2 62
2019-02-17 10:00:00 9.5 3 Sur 9 Nordeste 0 955 0.5 79
2019-02-17 09:00:00 6.4 6 Nordeste 11 Nordeste 0 954.8 0.8 88
2019-02-17 08:00:00 5.7 8 Nordeste 11 Este 0 954.5 0.2 87
2019-02-17 07:00:00 6 5 Nordeste 13 Este 0 954.5 -0.1 86
2019-02-17 06:00:00 6.4 7 Nordeste 19 Este 0 954 -0.5 88
2019-02-17 05:00:00 6.5 8 Este 18 Sudeste 0 954.3 -0.5 87
2019-02-17 04:00:00 7.3 4 Este 22 Este 0 954.6 -0.5 78
2019-02-17 03:00:00 8.1 10 Este 28 Este 0 954.5 -0.6 66
2019-02-17 02:00:00 8.8 13 Este 24 Sudeste 0 954.8 -0.6 57
2019-02-17 01:00:00 9 7 Sudeste 21 Este 0 955.1 -0.4 51
2019-02-17 00:00:00 8.5 8 Este 17 Este 0 955.1 -0.2 56
2019-02-16 23:00:00 10.2 9 Este 19 Este 0 955.4 0.3 50
2019-02-16 22:00:00 10.4 9 Este 20 Este 0 955.5 0.8 57
2019-02-16 21:00:00 10.5 8 Este 16 Este 0 955.3 0.9 61
2019-02-16 20:00:00 11.3 4 Este 20 Sudeste 0 955.1 1 56
2019-02-16 19:00:00 13.2 6 Este 23 Sur 0 954.7 0.7 50
2019-02-16 18:00:00 14.5 12 Sudeste 31 Sudeste 0 954.4 0.2 41
2019-02-16 17:00:00 15.6 13 Sudeste 30 Sur 0 954.1 -0.9 38
2019-02-16 16:00:00 16.5 14 Sudeste 37 Sudeste 0 954 -1.8 36
2019-02-16 15:00:00 17.7 22 Sur 37 Sudeste 0 954.2 -1.6 33
2019-02-16 14:00:00 17.4 21 Sudeste 39 Sur 0 955 -0.8 35
2019-02-16 13:00:00 16.9 19 Sudeste 43 Sur 0 955.8 0.3 40
2019-02-16 12:00:00 15.9 17 Sudeste 35 Sur 0 955.8 0.7 40
2019-02-16 11:00:00 12.8 10 Este 27 Sudeste 0 955.8 1.1 49
2019-02-16 10:00:00 12.1 12 Este 32 Este 0 955.5 1.1 49
2019-02-16 09:00:00 11.7 13 Este 30 Este 0 955.1 0.8 46
2019-02-16 08:00:00 11.3 13 Este 31 Este 0 954.7 0.4 47
2019-02-16 07:00:00 11.7 15 Sudeste 27 Este 0 954.4 -0.1 45
2019-02-16 06:00:00 10.5 11 Este 29 Este 0 954.3 -0.3 63
2019-02-16 05:00:00 10.8 13 Este 27 Este 0 954.3 -0.4 62
2019-02-16 04:00:00 10.7 12 Este 28 Este 0 954.5 -0.5 67
2019-02-16 03:00:00 11.5 15 Sudeste 28 Este 0 954.6 -0.7 66
2019-02-16 02:00:00 12.2 9 Este 21 Este 0 954.7 -0.5 61
2019-02-16 01:00:00 11.9 8 Este 15 Sudeste 0 955 -0.2 59
2019-02-16 00:00:00 11.1 4 Sudeste 19 Este 0 955.3 0.4 65
2019-02-15 23:00:00 10.3 3 Este 8 Nordeste 0 955.2 -0.1 67
2019-02-15 22:00:00 10.6 4 Norte 9 Noroeste 0 955.2 -0.1 69
2019-02-15 21:00:00 10.9 4 Nordeste 9 Nordeste 0 954.9 -0.2 69
2019-02-15 20:00:00 11.9 7 Nordeste 12 Este 0 955.3 0.2 69
2019-02-15 19:00:00 14.5 4 Este 9 Este 0 955.3 0 62
2019-02-15 18:00:00 17.4 4 Este 17 Este 0 955.1 -0.7 49
2019-02-15 17:00:00 17.8 9 Este 18 Este 0 955.1 -1.7 48
2019-02-15 16:00:00 19 8 Nordeste 20 Este 0 955.3 -2.5 45
2019-02-15 15:00:00 18.4 12 Sudeste 21 Sur 0 955.8 -2.6 45
2019-02-15 14:00:00 18 9 Sudeste 21 Sur 0 956.8 -1.7 48
2019-02-15 13:00:00 16.9 12 Sudeste 26 Sudeste 0 957.8 -0.8 49
2019-02-15 12:00:00 14.9 9 Este 21 Este 0 958.4 0.2 54
2019-02-15 11:00:00 12.2 10 Este 26 Este 0 958.5 0.6 65
2019-02-15 10:00:00 10.9 14 Este 27 Este 0 958.6 0.8 67
2019-02-15 09:00:00 10.3 10 Este 22 Este 0 958.2 0.4 64
2019-02-15 08:00:00 8.7 10 Este 19 Este 0 957.9 0.2 67
2019-02-15 07:00:00 8.8 8 Este 15 Este 0 957.8 -0.3 62
2019-02-15 06:00:00 7.4 4 Este 8 Este 0 957.8 -0.7 72
2019-02-15 05:00:00 7.7 3 Este 9 Este 0 957.7 -1.1 78
2019-02-15 04:00:00 7.5 4 Este 12 Este 0 958.1 -1 84
2019-02-15 03:00:00 7.7 8 Nordeste 12 Nordeste 0 958.5 -0.7 84
2019-02-15 02:00:00 7.3 8 Nordeste 14 Este 0 958.8 -0.5 84
2019-02-15 01:00:00 7.8 9 Este 17 Este 0 959.1 0 84
2019-02-15 00:00:00 10.2 10 Sudeste 17 Este 0 959.2 0.2 71
2019-02-14 23:00:00 10.5 9 Este 15 Sudeste 0 959.3 0.5 70
2019-02-14 22:00:00 11.3 8 Sudeste 18 Sudeste 0 959.1 0.7 68
2019-02-14 21:00:00 11.1 6 Este 11 Sudeste 0 959 0.6 67
2019-02-14 20:00:00 11.9 5 Sudeste 14 Sur 0 958.8 0.1 65
2019-02-14 19:00:00 13.8 9 Sudeste 23 Sudeste 0 958.4 -0.4 58
2019-02-14 18:00:00 16 13 Sur 26 Sur 0 958.4 -0.8 49
2019-02-14 17:00:00 17.2 13 Sur 27 Sur 0 958.7 -1 43
2019-02-14 16:00:00 17.7 13 Sur 28 Sur 0 958.8 -1.5 43
2019-02-14 15:00:00 17.3 15 Sudeste 28 Sudeste 0 959.2 -1.5 46
2019-02-14 14:00:00 16.8 14 Sur 27 Sudeste 0 959.7 -0.9 49
2019-02-14 13:00:00 15.4 17 Sur 27 Sur 0 960.3 0 51
2019-02-14 12:00:00 14.5 12 Sudeste 22 Sudeste 0 960.7 0.8 54
2019-02-14 11:00:00 12.6 8 Sudeste 21 Sur 0 960.6 1.1 64
2019-02-14 10:00:00 10.6 12 Sudeste 25 Sudeste 0 960.3 0.9 68
2019-02-14 09:00:00 9.2 8 Sudeste 16 Sudeste 0 959.9 0.8 67
2019-02-14 08:00:00 7.8 7 Este 18 Este 0 959.5 0.6 72
2019-02-14 07:00:00 7.8 8 Sudeste 13 Este 0 959.4 0.3 76
2019-02-14 06:00:00 7.8 7 Sudeste 10 Sudeste 0 959.1 -0.2 77
2019-02-14 05:00:00 8.3 7 Sudeste 12 Este 0 958.9 -0.5 78
2019-02-14 04:00:00 8.3 7 Sudeste 12 Sudeste 0 959.1 -0.5 81
2019-02-14 03:00:00 8 5 Sudeste 13 Sudeste 0 959.3 -0.4 84
2019-02-14 02:00:00 7.7 8 Este 12 Este 0 959.4 -0.3 86
2019-02-14 01:00:00 8.7 5 Sudeste 12 Este 0 959.6 0.1 79
2019-02-14 00:00:00 8.9 8 Este 13 Este 0 959.7 0.2 75
2019-02-13 23:00:00 9.5 8 Este 16 Este 0 959.7 0 71
2019-02-13 22:00:00 8.8 9 Este 14 Este 0 959.5 0.1 75
2019-02-13 21:00:00 8.8 8 Nordeste 13 Nordeste 0 959.5 0.3 76
2019-02-13 20:00:00 9.8 9 Nordeste 12 Este 0 959.7 0.7 70
2019-02-13 19:00:00 13 6 Sudeste 20 Sur 0 959.4 0.3 53
2019-02-13 18:00:00 15.3 12 Sur 21 Sur 0 959.2 -0.2 47
2019-02-13 17:00:00 16.7 12 Sur 28 Sur 0 959 -1 44
2019-02-13 16:00:00 17.3 12 Sur 29 Sur 0 959.1 -1.5 43
2019-02-13 15:00:00 17 13 Sudeste 28 Sur 0 959.4 -1.6 42
2019-02-13 14:00:00 15.9 12 Sudeste 27 Sur 0 960 -1.1 45
2019-02-13 13:00:00 15.6 13 Sudeste 26 Sudeste 0 960.6 -0.3 45
2019-02-13 12:00:00 14.2 13 Sudeste 28 Sudeste 0 961 0.2 51
2019-02-13 11:00:00 12.1 10 Sudeste 23 Sudeste 0 961.1 0.9 58
2019-02-13 10:00:00 10.1 10 Este 23 Este 0 960.9 0.8 --
2019-02-13 09:00:00 9.1 10 Este 28 Este 0 960.8 0.7 --
2019-02-13 08:00:00 8.4 9 Este 23 Este 0 960.2 -0.1 --
2019-02-13 07:00:00 8.2 9 Sudeste 20 Sudeste 0 960.1 -0.4 --
2019-02-13 06:00:00 7.9 9 Este 19 Sudeste 0 960.1 -0.4 --
2019-02-13 05:00:00 7.3 7 Sudeste 15 Sur 0 960.3 -0.5 --
2019-02-13 04:00:00 7.8 4 Sur 11 Sudeste 0 960.5 -0.5 --
2019-02-13 03:00:00 8.6 9 Este 20 Este 0 960.5 -0.9 --
2019-02-13 02:00:00 8.7 9 Este 18 Este 0 960.8 -0.7 --
2019-02-13 01:00:00 8.2 4 Este 8 Este 0 961 -0.6 --
2019-02-13 00:00:00 8.7 2 Norte 12 Este 0 961.4 -0.1 --
2019-02-12 23:00:00 9.7 4 Este 16 Este 0 961.5 0.1 --
2019-02-12 22:00:00 10.7 5 Sudeste 14 Este 0 961.6 0.9 --
2019-02-12 21:00:00 11.7 6 Este 15 Este 0 961.5 1.1 --
2019-02-12 20:00:00 12.2 5 Nordeste 13 Sudeste 0 961.4 1.2 --
2019-02-12 19:00:00 14.3 6 Sudeste 15 Sudeste 0 960.7 0.6 --
2019-02-12 18:00:00 16.4 5 Este 12 Sudeste 0 960.4 0.2 --
2019-02-12 17:00:00 16.5 7 Sur 15 Sur 0 960.2 -0.6 --
2019-02-12 16:00:00 16.6 6 Sudeste 16 Sur 0 960.1 -1.2 --
2019-02-12 15:00:00 17.1 8 Sur 19 Sur 0 960.2 -1.3 --
2019-02-12 14:00:00 16.4 10 Sur 19 Sur 0 960.8 -0.5 --
2019-02-12 13:00:00 16.2 12 Sur 21 Sur 0 961.3 0.3 55
2019-02-12 12:00:00 14.9 12 Sudeste 22 Sudeste 0 961.5 1.1 59
2019-02-12 11:00:00 12.7 13 Este 23 Sudeste 0 961.3 1.4 60
2019-02-12 10:00:00 11.3 10 Este 23 Este 0 961 1.3 64
2019-02-12 09:00:00 9.6 9 Este 18 Este 0 960.4 0.9 66
2019-02-12 08:00:00 7.9 8 Este 14 Este 0 959.9 0.5 87
2019-02-12 07:00:00 8.1 8 Este 14 Este 0 959.7 -0.3 85
2019-02-12 06:00:00 8 6 Este 11 Este 0 959.5 -0.7 81
2019-02-12 05:00:00 7.7 2 Norte 10 Nordeste 0 959.4 -1 77
2019-02-12 04:00:00 8 4 Nordeste 10 Nordeste 0 960 -0.4 71
2019-02-12 03:00:00 7.3 6 Nordeste 14 Este 0 960.2 -0.1 77
2019-02-12 02:00:00 7.9 3 Norte 9 Nordeste 0 960.4 0.2 71
2019-02-12 01:00:00 8.4 6 Nordeste 9 Nordeste 0 960.4 0.8 72
2019-02-12 00:00:00 8.8 2 Nordeste 17 Norte 0 960.3 0.9 68
2019-02-11 23:00:00 10 10 Nordeste 24 Norte 0 960.2 0.9 61
2019-02-11 22:00:00 10.7 13 Norte 29 Nordeste 0 959.6 0.9 58
2019-02-11 21:00:00 11.2 15 Norte 31 Norte 0 959.4 0.9 60
2019-02-11 20:00:00 11.7 21 Norte 33 Norte 0 959.3 0.8 60
2019-02-11 19:00:00 12.7 20 Norte 30 Nordeste 0 958.7 0.2 55
2019-02-11 18:00:00 14.6 21 Nordeste 31 Nordeste 0 958.5 -0.1 49
2019-02-11 17:00:00 15.9 18 Norte 26 Norte 0 958.5 -0.6 44
2019-02-11 16:00:00 17.2 10 Nordeste 18 Nordeste 0 958.5 -1.2 41
2019-02-11 15:00:00 18.3 9 Sudoeste 18 Sudoeste 0 958.6 -1.3 42
2019-02-11 14:00:00 17.3 4 Sur 24 Nordeste 0 959.1 -0.8 42
2019-02-11 13:00:00 15.4 8 Nordeste 18 Este 0 959.7 0 39
2019-02-11 12:00:00 14.1 5 Sudoeste 14 Sudoeste 0 959.9 0.7 56
2019-02-11 11:00:00 11.6 7 Sur 12 Sur 0 959.9 0.8 69
2019-02-11 10:00:00 8.8 4 Noroeste 10 Nordeste 0 959.7 0.7 86
2019-02-11 09:00:00 7.4 2 Noroeste 5 Sudeste 0 959.2 0.4 99
2019-02-11 08:00:00 7.7 4 Oeste 13 Noroeste 0 959.1 0.5 100
2019-02-11 07:00:00 8.8 5 Noroeste 19 Noroeste 0 959 0.2 99
2019-02-11 06:00:00 10.5 6 Noroeste 14 Oeste 0 958.8 -0.1 96
2019-02-11 05:00:00 10.9 4 Sudoeste 16 Norte 0.2 958.6 -0.6 100
2019-02-11 04:00:00 11.2 8 Oeste 18 Oeste 0 958.8 -0.6 100
2019-02-11 03:00:00 11.2 8 Oeste 22 Oeste 0 958.9 -0.6 100
2019-02-11 02:00:00 11.2 6 Oeste 18 Sudoeste 0 959.2 -0.5 100
2019-02-11 01:00:00 11 5 Oeste 15 Oeste 0 959.4 -0.3 100
2019-02-11 00:00:00 11 10 Oeste 19 Oeste 0 959.5 -0.1 100
2019-02-10 23:00:00 11.2 7 Oeste 13 Oeste 0 959.7 0.3 95
2019-02-10 22:00:00 11.3 4 Oeste 10 Oeste 0 959.7 0.7 91
2019-02-10 21:00:00 11.5 4 Oeste 12 Noroeste 0 959.6 0.7 89
2019-02-10 20:00:00 11.6 4 Oeste 13 Noroeste 0 959.4 0.4 84
2019-02-10 19:00:00 12 10 Noroeste 21 Noroeste 0 959 0.3 79
2019-02-10 18:00:00 12.8 6 Oeste 16 Oeste 0 958.9 0 73
2019-02-10 17:00:00 13.1 6 Noroeste 26 Noroeste 0 959 -0.2 71
2019-02-10 16:00:00 13.6 13 Noroeste 29 Noroeste 0 958.7 -0.7 67
2019-02-10 15:00:00 13.8 9 Noroeste 22 Oeste 0 958.9 -0.4 65
2019-02-10 14:00:00 13.8 6 Oeste 26 Noroeste 0 959.2 0 64
2019-02-10 13:00:00 13.5 9 Sudoeste 21 Sudoeste 0 959.4 0.5 67
2019-02-10 12:00:00 12.3 10 Sudoeste 17 Sudoeste 0 959.3 1.2 70
2019-02-10 11:00:00 11.7 5 Noroeste 33 Noroeste 0 959.2 1.7 71
2019-02-10 10:00:00 9.1 19 Norte 34 Norte 0 958.9 1.9 74
2019-02-10 09:00:00 7.8 13 Noroeste 26 Noroeste 0 958.1 1.7 82
2019-02-10 08:00:00 4.9 2 Sudoeste 6 Norte 0 957.5 1.1 99
2019-02-10 07:00:00 6.7 3 Norte 16 Norte 0 957 0.6 91
2019-02-10 06:00:00 6.6 3 Noroeste 16 Norte 0 956.4 0 93
2019-02-10 05:00:00 7 10 Norte 17 Norte 0 956.4 0.1 91
2019-02-10 04:00:00 5.9 6 Norte 17 Norte 0 956.4 -0.3 100
2019-02-10 03:00:00 5.6 3 Norte 7 Norte 0 956.4 -0.3 100
2019-02-10 02:00:00 5.4 3 Noroeste 7 Nordeste 0 956.3 -0.2 100
2019-02-10 01:00:00 5.7 4 Nordeste 6 Nordeste 0 956.7 0.3 100
2019-02-10 00:00:00 5.7 5 Este 9 Nordeste 0 956.7 0.4 100
2019-02-09 23:00:00 6.6 6 Nordeste 8 Nordeste 0 956.5 0.9 99
2019-02-09 22:00:00 7.1 0 Calma 10 Noroeste 0 956.4 1 95
2019-02-09 21:00:00 7.7 4 Norte 11 Oeste 0 956.3 1.3 91
2019-02-09 20:00:00 8.9 2 Noroeste 7 Noroeste 0 955.6 0.5 78
2019-02-09 19:00:00 11.1 4 Noroeste 15 Sudoeste 0 955.4 0.1 66
2019-02-09 18:00:00 14.6 7 Sudoeste 16 Sudoeste 0 955 -0.6 52
2019-02-09 17:00:00 15.3 9 Sudoeste 21 Sudoeste 0 955.1 -1.1 50
2019-02-09 16:00:00 15 10 Sudoeste 23 Sudoeste 0 955.3 -1.5 49
2019-02-09 15:00:00 15.7 11 Sudoeste 24 Sudoeste 0 955.6 -1.3 52
2019-02-09 14:00:00 14.9 12 Sur 23 Sur 0 956.2 -0.6 58
2019-02-09 13:00:00 14.2 8 Sudoeste 18 Sudoeste 0 956.8 0.4 55
2019-02-09 12:00:00 13.5 9 Sudoeste 16 Sudoeste 0 956.9 0.8 62
2019-02-09 11:00:00 11.1 6 Sur 14 Sudeste 0 956.8 1.2 74
2019-02-09 10:00:00 9.2 5 Sudeste 9 Sudeste 0 956.4 0.9 80
2019-02-09 09:00:00 6.1 0 Calma 10 Nordeste 0 956.1 1 91
2019-02-09 08:00:00 5.7 8 Nordeste 11 Nordeste 0 955.6 0.5 94
2019-02-09 07:00:00 5 2 Oeste 10 Nordeste 0 955.5 0 91
2019-02-09 06:00:00 5.6 4 Nordeste 9 Este 0 955.1 -0.6 87
2019-02-09 05:00:00 5.8 2 Noroeste 13 Norte 0 955.1 -0.7 85
2019-02-09 04:00:00 7 8 Norte 17 Norte 0 955.5 -0.4 92
2019-02-09 03:00:00 5.9 4 Norte 8 Nordeste 0 955.7 -0.4 85
2019-02-09 02:00:00 6.1 3 Sur 8 Nordeste 0 955.8 -0.2 83
2019-02-09 01:00:00 7.2 0 Calma 21 Norte 0 955.9 -0.1 80
2019-02-09 00:00:00 9.3 18 Norte 30 Norte 0 956.1 0.5 78
2019-02-08 23:00:00 9.4 19 Norte 38 Norte 0 956 0.7 79
2019-02-08 22:00:00 9.5 21 Norte 35 Norte 0 956 0.8 78
2019-02-08 21:00:00 9.1 12 Norte 27 Norte 0 955.6 0.6 78
2019-02-08 20:00:00 9.8 21 Norte 33 Norte 0 955.3 0.3 79
2019-02-08 19:00:00 11.8 17 Norte 23 Norte 0 955.2 0.1 73
2019-02-08 18:00:00 15.7 8 Sudoeste 18 Sudoeste 0 955 -0.4 45
2019-02-08 17:00:00 16.6 11 Sudoeste 19 Sur 0 955 -0.9 41
2019-02-08 16:00:00 17.4 8 Sudoeste 20 Sudoeste 0 955.1 -1.3 42
2019-02-08 15:00:00 17.5 8 Sudoeste 20 Sudoeste 0 955.4 -1.1 41
2019-02-08 14:00:00 17.1 8 Oeste 18 Sudoeste 0 955.9 -0.6 40
2019-02-08 13:00:00 16.2 8 Sur 14 Sur 0 956.4 0.1 42
2019-02-08 12:00:00 15.1 8 Sudoeste 13 Sudoeste 0 956.5 0.7 43
2019-02-08 11:00:00 12.5 7 Sudoeste 10 Sudoeste 0 956.5 1 49
2019-02-08 10:00:00 10 0 Calma 7 Nordeste 0 956.3 1.1 72
2019-02-08 09:00:00 6.8 4 Nordeste 9 Nordeste 0 955.8 0.5 72
2019-02-08 08:00:00 6.1 5 Norte 11 Nordeste 0 955.5 0.2 78
2019-02-08 07:00:00 6.5 2 Este 13 Nordeste 0 955.2 -0.4 79
2019-02-08 06:00:00 7 2 Norte 11 Este 0 955.3 -0.6 70
2019-02-08 05:00:00 7.1 3 Noroeste 9 Nordeste 0 955.3 -0.9 67
2019-02-08 04:00:00 7.2 4 Este 7 Nordeste 0 955.6 -0.6 65
2019-02-08 03:00:00 7.6 3 Nordeste 10 Nordeste 0 955.9 -0.4 62
2019-02-08 02:00:00 8.9 5 Norte 12 Nordeste 0 956.2 0 56
2019-02-08 01:00:00 8.1 4 Nordeste 10 Nordeste 0 956.2 0.2 57
2019-02-08 00:00:00 9.7 7 Nordeste 20 Norte 0 956.3 0.6 57
2019-02-07 23:00:00 10.3 11 Nordeste 27 Nordeste 0 956.2 0.5 59
2019-02-07 22:00:00 10.6 14 Norte 30 Nordeste 0 956 0.5 53
2019-02-07 21:00:00 11 18 Norte 38 Norte 0 955.7 0.3 58
2019-02-07 20:00:00 10.8 18 Norte 34 Norte 0 955.7 0.2 63
2019-02-07 19:00:00 12.1 16 Norte 29 Nordeste 0 955.5 0 63
2019-02-07 18:00:00 15 12 Norte 22 Nordeste 0 955.4 -0.7 53
2019-02-07 17:00:00 18.2 9 Sudoeste 16 Sudoeste 0 955.5 -1.1 33
2019-02-07 16:00:00 18.5 10 Sudoeste 20 Sudoeste 0 955.5 -1.8 35
2019-02-07 15:00:00 18.4 10 Sudoeste 23 Sudoeste 0 956.1 -1.5 37
2019-02-07 14:00:00 18.4 10 Sudoeste 21 Sudoeste 0 956.6 -0.8 41
2019-02-07 13:00:00 17.9 9 Sudoeste 18 Sudoeste 0 957.3 0.2 38
2019-02-07 12:00:00 16.3 7 Sudoeste 12 Sudoeste 0 957.6 0.9 49
2019-02-07 11:00:00 14 7 Sudoeste 11 Sudoeste 0 957.4 1.1 56
2019-02-07 10:00:00 12.2 4 Sudoeste 35 Nordeste 0 957.1 1 54
2019-02-07 09:00:00 10.6 12 Norte 39 Norte 0 956.7 0.6 61
2019-02-07 08:00:00 10.9 16 Norte 30 Nordeste 0 956.3 0.3 64
2019-02-07 07:00:00 10.6 3 Noroeste 15 Nordeste 0 956.1 -0.4 67
2019-02-07 06:00:00 10.8 4 Sudoeste 19 Norte 0 956.1 -0.7 65
2019-02-07 05:00:00 11.3 6 Sur 26 Norte 0 956 -0.9 63
2019-02-07 04:00:00 11.6 9 Norte 34 Nordeste 0 956.5 -0.8 59
2019-02-07 03:00:00 12 9 Norte 39 Nordeste 0 956.8 -0.6 59
2019-02-07 02:00:00 12.3 25 Norte 42 Nordeste 0 956.9 -0.4 57
2019-02-07 01:00:00 11.7 7 Norte 17 Norte 0 957.3 0.2 53
2019-02-07 00:00:00 11.1 7 Noroeste 25 Norte 0 957.4 0.3 59
2019-02-06 23:00:00 12.2 13 Norte 35 Nordeste 0 957.3 0.3 55
2019-02-06 22:00:00 12.3 21 Norte 35 Norte 0 957.1 0.3 60
2019-02-06 21:00:00 12.1 15 Norte 28 Nordeste 0 957.1 0.4 62
2019-02-06 20:00:00 13 20 Norte 31 Norte 0 957 0.3 57
2019-02-06 19:00:00 13.5 10 Norte 19 Noroeste 0 956.8 0 56
2019-02-06 18:00:00 15.7 8 Norte 17 Sudoeste 0 956.7 -0.6 53
2019-02-06 17:00:00 18.1 9 Oeste 23 Sudoeste 0 956.7 -1.2 43
2019-02-06 16:00:00 19.1 12 Sudoeste 23 Sudoeste 0 956.8 -1.9 40
2019-02-06 15:00:00 19 10 Oeste 22 Sur 0 957.3 -1.8 39
2019-02-06 14:00:00 19 10 Sudoeste 19 Sudoeste 0 957.9 -1.2 38
2019-02-06 13:00:00 18.1 9 Sudoeste 17 Sur 0 958.7 -0.5 40
2019-02-06 12:00:00 16.7 8 Sudoeste 12 Sur 0 959.1 0.2 43
2019-02-06 11:00:00 14 5 Sur 7 Sur 0 959.1 0.7 51
2019-02-06 10:00:00 11.1 0 Calma 9 Nordeste 0 959.2 0.9 59
2019-02-06 09:00:00 8.1 5 Nordeste 11 Nordeste 0 958.9 0.5 54
2019-02-06 08:00:00 7.2 4 Nordeste 8 Nordeste 0 958.4 -0.1 55
2019-02-06 07:00:00 7.6 3 Nordeste 10 Nordeste 0 958.3 -0.7 52
2019-02-06 06:00:00 7.7 3 Este 10 Nordeste 0 958.4 -0.8 56
2019-02-06 05:00:00 8.1 0 Calma 10 Nordeste 0 958.5 -0.9 60
2019-02-06 04:00:00 8.5 3 Este 12 Nordeste 0 959 -0.6 61
2019-02-06 03:00:00 9.1 10 Nordeste 14 Nordeste 0 959.2 -0.7 60
2019-02-06 02:00:00 9.2 2 Noroeste 8 Este 0 959.4 -0.5 59
2019-02-06 01:00:00 10 4 Nordeste 9 Nordeste 0 959.6 -0.2 57
2019-02-06 00:00:00 10.2 8 Nordeste 12 Nordeste 0 959.9 0 55
2019-02-05 23:00:00 9.8 7 Nordeste 10 Nordeste 0 959.9 0.1 57
2019-02-05 22:00:00 9.4 8 Nordeste 13 Nordeste 0 959.8 0.3 63
2019-02-05 21:00:00 10.8 6 Norte 12 Nordeste 0 959.9 0.4 57
2019-02-05 20:00:00 11.8 4 Norte 15 Norte 0 959.8 0.2 51
2019-02-05 19:00:00 13.6 6 Noroeste 12 Sudoeste 0 959.5 -0.1 49
2019-02-05 18:00:00 17.5 7 Sudoeste 15 Sudoeste 0 959.5 -0.6 35
2019-02-05 17:00:00 18.8 7 Sudoeste 15 Sudoeste 0 959.6 -0.9 32
2019-02-05 16:00:00 19.2 7 Sudoeste 17 Sudoeste 0 959.6 -1.7 32
2019-02-05 15:00:00 18.7 7 Sudoeste 17 Sur 0 960.1 -1.7 31
2019-02-05 14:00:00 17.8 7 Sur 13 Sudoeste 0 960.5 -1.1 33
2019-02-05 13:00:00 16.7 6 Sudoeste 12 Sur 0 961.3 0.2 31
2019-02-05 12:00:00 15.1 5 Sudoeste 12 Sudoeste 0 961.8 1.5 36
2019-02-05 11:00:00 12.4 4 Sur 9 Sur 0 961.6 1.7 39
2019-02-05 10:00:00 10 2 Norte 8 Nordeste 0 961.1 1.6 39
2019-02-05 09:00:00 7.3 6 Nordeste 11 Nordeste 0 960.3 0.6 43
2019-02-05 08:00:00 6.5 3 Sudeste 8 Nordeste 0 959.9 0.4 43
2019-02-05 07:00:00 6.8 4 Este 9 Nordeste 0 959.5 -0.2 41
2019-02-05 06:00:00 7.4 3 Noroeste 10 Nordeste 0 959.7 -0.1 40
2019-02-05 05:00:00 9.3 5 Nordeste 9 Nordeste 0 959.5 -0.5 34
2019-02-05 04:00:00 9.9 5 Norte 22 Nordeste 0 959.7 -0.7 30
2019-02-05 03:00:00 9.6 9 Nordeste 17 Nordeste 0 959.8 -0.6 30
2019-02-05 02:00:00 9.2 9 Nordeste 14 Nordeste 0 960 -0.6 31
2019-02-05 01:00:00 8.2 4 Norte 10 Nordeste 0 960.4 -0.1 37
2019-02-05 00:00:00 7 2 Oeste 11 Nordeste 0 960.4 0.1 51
2019-02-04 23:00:00 7.7 6 Norte 9 Nordeste 0 960.6 0.6 51
2019-02-04 22:00:00 8.6 4 Nordeste 17 Norte 0 960.5 0.7 50
2019-02-04 21:00:00 9.3 11 Norte 30 Nordeste 0 960.3 0.2 51
2019-02-04 20:00:00 10 19 Norte 30 Norte 0 960 -0.4 53
2019-02-04 19:00:00 16.1 8 Sudoeste 17 Sudoeste 0 959.8 -1.2 37
2019-02-04 18:00:00 16 6 Sudoeste 14 Sudoeste -- 960.1 -1.5 38
2019-02-04 17:00:00 15.3 6 Sudoeste 14 Sur 0 960.4 -- 39
2019-02-04 16:00:00 13.4 4 Sur 13 Sudoeste -- 961 -- 42
2019-02-04 15:00:00 12.1 6 Sur -- -- -- 961.6 -- 43
2019-02-04 14:00:00 -- -- -- -- -- -- -- -- --
2019-02-04 13:00:00 -- -- -- -- -- -- -- -- --
2019-02-04 12:00:00 -- -- -- -- -- -- -- -- --
2019-02-04 11:00:00 8.5 5 Sur 11 Sur 0 961.2 0.8 48
2019-02-04 10:00:00 5.4 3 Nordeste 7 Nordeste 0 960.8 0.9 50
2019-02-04 09:00:00 2.6 0 Calma 11 Nordeste 0 960.7 0.7 61
2019-02-04 08:00:00 2.5 4 Nordeste 9 Nordeste 0 960.4 -0.1 58
2019-02-04 07:00:00 3.5 4 Este 9 Sudeste 0 959.9 -0.9 55
2019-02-04 06:00:00 4.5 3 Este 15 Este 0 960 -1.1 49
2019-02-04 05:00:00 3.7 5 Nordeste 12 Nordeste 0 960.5 -0.9 58
2019-02-04 04:00:00 4 10 Nordeste 19 Nordeste 0 960.8 -0.4 59
2019-02-04 03:00:00 4.5 8 Nordeste 18 Nordeste 0 961.1 0 59
2019-02-04 02:00:00 5.2 6 Nordeste 26 Nordeste 0 961.4 0.8 55
2019-02-04 01:00:00 5.4 13 Nordeste 30 Nordeste 0 961.2 1 55
2019-02-04 00:00:00 5.1 8 Este 23 Nordeste 0 961.1 1.3 56
2019-02-03 23:00:00 4.9 10 Nordeste 32 Norte 0 960.6 1.2 59
2019-02-03 22:00:00 5.1 19 Norte 36 Nordeste 0 960.2 1.4 63
2019-02-03 21:00:00 5.4 22 Norte 36 Nordeste 0 959.8 1.4 64
2019-02-03 20:00:00 5.5 22 Norte 33 Nordeste 0 959.4 1 62
2019-02-03 19:00:00 6.4 7 Norte 26 Norte 0 958.8 0.9 60
2019-02-03 18:00:00 8.8 11 Norte 24 Norte 0 958.4 0.4 46
2019-02-03 17:00:00 10.1 8 Norte 24 Norte 0 958.4 0.3 39
2019-02-03 16:00:00 10.8 6 Norte 29 Norte 0 957.9 -0.8 36
2019-02-03 15:00:00 10.5 7 Norte 36 Norte 0 958 -1 42
2019-02-03 14:00:00 8.8 13 Norte 40 Norte 0 958.1 -0.9 46
2019-02-03 13:00:00 8.3 11 Norte 45 Norte 0 958.7 0.9 55
2019-02-03 12:00:00 6.6 21 Norte 41 Nordeste 0 959 1.5 55
2019-02-03 11:00:00 5.5 10 Norte 35 Nordeste 0 959 2 62
2019-02-03 10:00:00 3.8 15 Nordeste 37 Nordeste 0 957.8 1 69
2019-02-03 09:00:00 2.6 17 Norte 41 Norte 0 957.5 0.9 78
2019-02-03 08:00:00 2.6 18 Norte 34 Norte 0 957 0.4 82
2019-02-03 07:00:00 3.2 17 Norte 27 Norte 0 956.8 0.2 74
2019-02-03 06:00:00 3.2 13 Norte 24 Norte 0 956.6 0 71
2019-02-03 05:00:00 2.4 13 Norte 28 Norte 0 956.6 0.6 82
2019-02-03 04:00:00 2.6 16 Norte 30 Norte 0 956.6 0.8 82
2019-02-03 03:00:00 3.1 11 Norte 22 Noroeste 0 956.6 1.3 75
2019-02-03 02:00:00 3.3 13 Norte 28 Norte 0 956 1.1 75
2019-02-03 01:00:00 3.4 10 Norte 29 Norte 0 955.8 1.4 73
2019-02-03 00:00:00 3.8 13 Norte 24 Nordeste 0 955.3 1.4 70
2019-02-02 23:00:00 4.1 13 Norte 35 Norte 0 954.9 1.7 69
2019-02-02 22:00:00 4.7 15 Norte 30 Norte 0 954.4 2 64
2019-02-02 21:00:00 5.2 13 Norte 37 Noroeste 0 953.9 2.1 61
2019-02-02 20:00:00 5.3 5 Oeste 33 Norte 0 953.2 1.9 57
2019-02-02 19:00:00 6.5 12 Norte 29 Noroeste 0 952.4 1.9 49
2019-02-02 18:00:00 7.9 14 Norte 42 Noroeste 0 951.8 1.8 46
2019-02-02 17:00:00 8.4 18 Norte 49 Noroeste 0 951.3 1.9 51
2019-02-02 16:00:00 8.4 18 Norte 45 Noroeste 0 950.5 1.6 51
2019-02-02 15:00:00 8.5 -- -- -- -- 0 950 1.9 55
2019-02-02 14:00:00 7.6 -- -- -- -- 0 949.4 1.4 54
2019-02-02 13:00:00 7.1 -- -- -- -- 0 948.9 1.2 60
2019-02-02 12:00:00 6.1 -- -- -- -- 0 948.1 1.4 66
2019-02-02 11:00:00 4.9 -- -- -- -- 0 948 2.4 79
2019-02-02 10:00:00 4.4 -- -- -- -- 0 947.7 2.9 82
2019-02-02 09:00:00 4.1 13 Noroeste 37 Noroeste 0 946.7 2.6 89
2019-02-02 08:00:00 4.4 15 Noroeste 40 Norte 0 945.6 2.2 86
2019-02-02 07:00:00 4.7 18 Noroeste 40 Noroeste 0 944.8 1.8 90
2019-02-02 06:00:00 5 18 Noroeste -- -- 0 944.1 1.6 93
2019-02-02 05:00:00 5.4 17 Noroeste 43 Noroeste 0 943.4 1.4 96
2019-02-02 04:00:00 5.4 23 Noroeste -- -- 0 943 1.4 94
2019-02-02 03:00:00 5.4 -- -- -- -- 0 942.5 1.1 96
2019-02-02 02:00:00 5.4 -- -- -- -- 0 942 1 96
2019-02-02 01:00:00 5.5 -- -- -- -- 0 941.6 1.1 100
2019-02-02 00:00:00 5.1 15 Noroeste -- -- 0 941.4 1.9 100
2019-02-01 23:00:00 4.6 13 Noroeste 31 Noroeste 0 941 2 100
2019-02-01 22:00:00 4.2 15 Noroeste 36 Noroeste 0 940.5 3.1 100
2019-02-01 21:00:00 3.7 14 Noroeste -- -- 0 939.5 2.9 98
2019-02-01 20:00:00 4.8 23 Noroeste -- -- 0 939 2.6 89
2019-02-01 19:00:00 5.6 20 Noroeste -- -- 0 937.4 2.4 94
2019-02-01 18:00:00 5.8 -- -- -- -- 0 936.6 1 95
2019-02-01 17:00:00 5.7 -- -- -- -- 0 936.4 0.2 96
2019-02-01 16:00:00 10.2 -- -- -- -- 0 935 -2 68
2019-02-01 15:00:00 9.5 22 Noroeste 49 Noroeste 0 935.6 -1.5 75
2019-02-01 14:00:00 9.4 20 Oeste -- -- 0 936.2 -0.7 78
2019-02-01 13:00:00 8.1 17 Oeste -- -- 0 937 0.9 95
2019-02-01 12:00:00 9 -- -- -- -- 0 937.1 1.6 77
2019-02-01 11:00:00 8.3 -- -- -- -- 0 936.9 2 94
2019-02-01 10:00:00 7.5 18 Noroeste -- -- 0 936.1 1.2 97
2019-02-01 09:00:00 7.4 -- -- -- -- 0 935.5 1.1 99
2019-02-01 08:00:00 7.9 18 Noroeste 39 Oeste 0 934.9 1 98
2019-02-01 07:00:00 7.8 18 Noroeste -- -- 0 934.9 0.3 100
2019-02-01 06:00:00 8.5 13 Noroeste -- -- 0 934.4 -1 100
2019-02-01 05:00:00 10.7 20 Oeste 38 Oeste 0 933.9 -2.2 100
2019-02-01 04:00:00 10.6 21 Noroeste 41 Noroeste 0 934.6 -2.5 100
2019-02-01 03:00:00 11.4 19 Oeste 41 Oeste 0 935.4 -3 100
2019-02-01 02:00:00 11.2 20 Oeste 43 Oeste 0 936.1 -2.8 100
2019-02-01 01:00:00 10.8 16 Oeste 42 Oeste 0 937.1 -2.7 100
2019-02-01 00:00:00 10.2 16 Oeste 40 Oeste 0 938.4 -2 100
2019-01-31 23:00:00 10.3 17 Oeste 41 Oeste 0 938.9 -1.8 100
2019-01-31 22:00:00 10.1 14 Oeste 29 Sudoeste 0 939.8 -1.4 100
2019-01-31 21:00:00 10.2 15 Oeste 37 Oeste 0 940.4 -1 100
2019-01-31 20:00:00 10.2 12 Oeste 41 Oeste 0 940.7 -0.6 100
2019-01-31 19:00:00 10.7 17 Oeste 34 Oeste 0 941.2 -0.9 100
2019-01-31 18:00:00 10.9 17 Oeste 34 Oeste 0 941.4 -1 100
2019-01-31 17:00:00 11 15 Oeste 37 Oeste 0 941.3 -2 100
2019-01-31 16:00:00 11.3 17 Oeste 33 Oeste 0 942.1 -2.1 100
2019-01-31 15:00:00 11.2 12 Oeste 28 Oeste 0 942.4 -2.5 100
2019-01-31 14:00:00 11.2 17 Oeste 32 Oeste 0 943.3 -1.2 100
2019-01-31 13:00:00 10.6 12 Oeste -- -- 0 944.2 -0.7 100
2019-01-31 12:00:00 10.4 3 Este 33 Oeste 0 944.9 0.6 100
2019-01-31 11:00:00 10.1 14 Oeste 24 Oeste 0 944.5 0.9 100
2019-01-31 10:00:00 9.8 14 Oeste 31 Oeste 0 944.9 1.4 100
2019-01-31 09:00:00 9.7 17 Noroeste 38 Oeste 0 944.3 0.6 100
2019-01-31 08:00:00 9.9 17 Noroeste 40 Noroeste 0 943.6 -0.6 100
2019-01-31 07:00:00 10.2 19 Noroeste 41 Noroeste 0 943.5 -1.3 100
2019-01-31 06:00:00 10.2 12 Oeste 27 Noroeste 0 943.7 -1.3 100
2019-01-31 05:00:00 10.2 15 Noroeste 33 Noroeste 0 944.2 -1.4 100
2019-01-31 04:00:00 10.1 13 Noroeste 35 Noroeste 0 944.8 -1.3 100
2019-01-31 03:00:00 9.7 10 Oeste 23 Noroeste 0 945 -1.1 100
2019-01-31 02:00:00 9.5 9 Oeste 23 Oeste 0 945.6 -0.9 100
2019-01-31 01:00:00 9.4 10 Oeste 34 Oeste 0 946.1 -0.7 100
2019-01-31 00:00:00 9.4 12 Oeste 26 Noroeste 0 946.1 -0.8 100
2019-01-30 23:00:00 9.3 9 Oeste 24 Noroeste 0 946.5 -0.7 100
2019-01-30 22:00:00 9.4 11 Oeste 26 Oeste 0 946.8 -0.6 100
2019-01-30 21:00:00 9.6 13 Oeste 27 Noroeste 0 946.9 -0.9 100
2019-01-30 20:00:00 9.5 11 Oeste 22 Oeste 0 947.2 -1.1 100
2019-01-30 19:00:00 9.1 8 Oeste 21 Sudoeste 0 947.4 -0.9 100
2019-01-30 18:00:00 8.9 5 Oeste 13 Oeste 0 947.8 -1 100
2019-01-30 17:00:00 8.6 6 Oeste 19 Oeste 0 948.3 -1.3 100
2019-01-30 16:00:00 8.9 9 Oeste 21 Noroeste 0 948.3 -1.8 94
2019-01-30 15:00:00 9.5 8 Noroeste 22 Noroeste 0 948.8 -2 95
2019-01-30 14:00:00 9.7 12 Noroeste 25 Noroeste 0 949.6 -0.9 78
2019-01-30 13:00:00 10 11 Norte 37 Norte 0 950.1 -0.2 75
2019-01-30 12:00:00 9.4 22 Norte 37 Norte 0 950.8 0.8 79
2019-01-30 11:00:00 8.2 13 Norte 28 Norte 0 950.5 0.8 90
2019-01-30 10:00:00 7.3 12 Noroeste 36 Norte 0 950.3 1 93
2019-01-30 09:00:00 6.8 16 Norte 36 Norte 0 950 0.4 92
2019-01-30 08:00:00 6.9 12 Noroeste 32 Noroeste 0 949.7 -0.1 95
2019-01-30 07:00:00 7.2 15 Norte 33 Norte 0 949.3 -0.7 96
2019-01-30 06:00:00 7.6 12 Noroeste 30 Noroeste 0 949.6 -0.6 100
2019-01-30 05:00:00 7.7 17 Norte 32 Noroeste 0 949.8 -1 99
2019-01-30 04:00:00 8.2 15 Noroeste 36 Norte 0 950 -1 100
2019-01-30 03:00:00 9 13 Noroeste 34 Noroeste 0 950.2 -1.1 100
2019-01-30 02:00:00 9 11 Noroeste 25 Noroeste 0 950.8 -0.8 100
2019-01-30 01:00:00 8.6 10 Oeste 26 Oeste 0 951 -0.7 100
2019-01-30 00:00:00 8.5 10 Noroeste 26 Noroeste 0 951.3 -0.6 100
2019-01-29 23:00:00 8.4 12 Noroeste 31 Noroeste 0 951.6 -0.2 100
2019-01-29 22:00:00 8.4 14 Noroeste 30 Oeste 0 951.7 0.2 100
2019-01-29 21:00:00 8.7 12 Noroeste 32 Noroeste 0 951.9 0.5 97
2019-01-29 20:00:00 9.2 11 Noroeste 23 Noroeste 0 951.8 0 90
2019-01-29 19:00:00 9.7 15 Noroeste 30 Noroeste 0 951.5 -0.4 90
2019-01-29 18:00:00 10.2 10 Oeste 31 Oeste 0 951.4 -0.8 85
2019-01-29 17:00:00 10.6 16 Noroeste 39 Oeste 0 951.8 -1.2 80
2019-01-29 16:00:00 10.4 19 Noroeste 41 Noroeste 0 951.9 -2.1 81
2019-01-29 15:00:00 10.6 16 Noroeste 46 Noroeste 0 952.2 -2.5 83
2019-01-29 14:00:00 10.6 20 Noroeste 39 Noroeste 0 953 -1.6 84
2019-01-29 13:00:00 10.4 18 Noroeste -- -- 0 954 0.2 81
2019-01-29 12:00:00 9.7 9 Noroeste 35 Norte 0 954.7 0.9 89
2019-01-29 11:00:00 9 11 Noroeste 45 Norte 0 954.6 1.3 90
2019-01-29 10:00:00 7.9 31 Norte 51 Norte 0 953.8 0.5 97
2019-01-29 09:00:00 7.1 26 Norte -- -- 0 953.8 0.5 98
2019-01-29 08:00:00 7 25 Norte 46 Norte 0 953.3 -0.4 92
2019-01-29 07:00:00 7 20 Norte -- -- 0 953.3 0 93
2019-01-29 06:00:00 7.2 30 Norte 50 Norte 0 953.3 0.1 95
2019-01-29 05:00:00 7.3 31 Norte 54 Norte 0 953.7 0.5 98
2019-01-29 04:00:00 7.4 30 Norte -- -- 0 953.3 -0.5 98
2019-01-29 03:00:00 8 30 Norte -- -- 0 953.2 -1 94
2019-01-29 02:00:00 8.3 -- -- -- -- 0 953.2 -1.4 91
2019-01-29 01:00:00 8.4 33 Norte 51 Norte 0 953.8 -1.1 95
2019-01-29 00:00:00 8.6 28 Norte 47 Norte 0 954.2 -0.7 94
2019-01-28 23:00:00 8.8 22 Norte 41 Norte 0 954.6 -0.7 93
2019-01-28 22:00:00 9.2 23 Norte 41 Norte 0 954.9 0.3 89
2019-01-28 21:00:00 9.3 14 Norte 30 Norte 0 954.9 0.2 86
2019-01-28 20:00:00 9.5 9 Noroeste 30 Noroeste 0 955.3 0.6 88
2019-01-28 19:00:00 9.9 10 Norte -- -- 0 954.6 0.1 84
2019-01-28 18:00:00 10.2 19 Noroeste 39 Norte 0 954.7 0 83
2019-01-28 17:00:00 10.4 18 Norte -- -- 0 954.7 0.3 78
2019-01-28 16:00:00 10.7 -- -- -- -- 0 954.5 -0.7 72
2019-01-28 15:00:00 10.5 -- -- -- -- 0 954.7 -0.7 72
2019-01-28 14:00:00 9.8 -- -- -- -- 0 954.4 0 76
2019-01-28 13:00:00 9.3 37 Norte -- -- 0 955.2 0.3 75
2019-01-28 12:00:00 9.3 -- -- -- -- 0 955.4 0.5 73
2019-01-28 11:00:00 7.7 40 Norte 66 Norte 0 954.4 -0.3 78
2019-01-28 10:00:00 5.6 38 Norte 59 Nordeste 0 954.9 0.5 86
2019-01-28 09:00:00 5.1 36 Norte 51 Norte 0 954.9 0.6 86
2019-01-28 08:00:00 4.4 24 Norte 46 Norte 0 954.7 0.7 87
2019-01-28 07:00:00 3.8 21 Norte 39 Norte 0 954.4 -0.2 94
2019-01-28 06:00:00 4.2 21 Norte 44 Nordeste 0 954.3 0.1 94
2019-01-28 05:00:00 4.3 25 Norte 46 Norte 0 954 -0.9 96
2019-01-28 04:00:00 4.6 30 Norte 49 Norte 0 954.6 -0.3 95
2019-01-28 03:00:00 4.9 27 Norte 44 Norte 0 954.2 -0.2 92
2019-01-28 02:00:00 5.1 28 Norte 41 Norte 0 954.9 0.8 92
2019-01-28 01:00:00 5.2 21 Norte 45 Nordeste 0 954.9 0.9 91
2019-01-28 00:00:00 5.8 27 Norte 50 Norte 0 954.4 1.2 85
2019-01-27 23:00:00 6.4 33 Norte 56 Norte 0 954.1 1.3 80
2019-01-27 22:00:00 7 29 Norte 50 Norte 0 954 1.3 76
2019-01-27 21:00:00 7.5 21 Norte 37 Norte 0 953.2 0.6 70
2019-01-27 20:00:00 8.3 22 Norte 40 Norte 0 952.8 0.2 66
2019-01-27 19:00:00 8.6 23 Norte 37 Norte 0 952.7 0.1 67
2019-01-27 18:00:00 9.2 19 Norte 33 Noroeste 0 952.6 0.1 66
2019-01-27 17:00:00 9.7 15 Norte 36 Norte 0 952.6 -0.2 65
2019-01-27 16:00:00 9.4 18 Norte 40 Noroeste 0 952.6 -0.4 67
2019-01-27 15:00:00 10.3 22 Norte 46 Norte 0 952.5 -0.8 65
2019-01-27 14:00:00 9.7 21 Norte 46 Noroeste 0 952.8 0.4 74
2019-01-27 13:00:00 9.3 23 Norte 44 Noroeste 0 953 1.6 80
2019-01-27 12:00:00 7 22 Norte 44 Noroeste 0 953.3 2.6 100
2019-01-27 11:00:00 7 21 Norte 45 Norte 0 952.4 2.2 96
2019-01-27 10:00:00 6 23 Norte 50 Nordeste 0 951.4 1.3 98
2019-01-27 09:00:00 5.4 29 Norte 51 Norte 0 950.7 0.2 95
2019-01-27 08:00:00 5.5 28 Norte 48 Norte 0 950.2 -0.5 85
2019-01-27 07:00:00 6.8 17 Norte 37 Nordeste 0 950.1 -0.9 74
2019-01-27 06:00:00 8.6 17 Noroeste 35 Noroeste 0 950.5 -0.9 63
2019-01-27 05:00:00 10 14 Noroeste 31 Norte 0 950.7 -1.3 65
2019-01-27 04:00:00 10 9 Noroeste 43 Norte 0 951 -1.2 65
2019-01-27 03:00:00 9.8 27 Norte 44 Noroeste 0 951.4 -0.7 79
2019-01-27 02:00:00 9 11 Noroeste 25 Norte 0 952 -0.1 79
2019-01-27 01:00:00 9.4 8 Noroeste 12 Noroeste 0 952.2 -0.3 76
2019-01-27 00:00:00 10 6 Oeste 24 Norte 0 952.1 -0.3 72
2019-01-26 23:00:00 11.4 17 Norte 22 Norte 0 952.1 -0.4 67
2019-01-26 22:00:00 11.5 14 Norte 23 Noroeste 0 952.5 0.3 68
2019-01-26 21:00:00 10.9 6 Oeste 23 Noroeste 0 952.4 0.3 68
2019-01-26 20:00:00 12.4 11 Norte 18 Noroeste 0 952.5 0.3 64
2019-01-26 19:00:00 13.2 7 Norte 15 Oeste 0 952.2 -0.1 60
2019-01-26 18:00:00 16.7 8 Oeste 19 Sudoeste 0 952.1 -0.5 46
2019-01-26 17:00:00 18.9 8 Oeste 21 Sudoeste 0 952.2 -1.3 43
2019-01-26 16:00:00 19.1 12 Sudoeste 21 Sudoeste 0 952.3 -1.8 44
2019-01-26 15:00:00 19.1 8 Sudoeste 16 Sudoeste 0 952.6 -1.7 42
2019-01-26 14:00:00 18.8 7 Sudoeste 14 Sudoeste 0 953.5 -0.7 42
2019-01-26 13:00:00 18 8 Sudoeste 13 Sudoeste 0 954.1 0.3 44
2019-01-26 12:00:00 16.2 6 Sur 12 Sur 0 954.3 1 47
2019-01-26 11:00:00 13.9 6 Sur 10 Sudeste 0 954.2 1.4 54
2019-01-26 10:00:00 11.4 3 Nordeste 10 Nordeste 0 953.8 1.2 61
2019-01-26 09:00:00 9.8 7 Nordeste 12 Este 0 953.3 1 57
2019-01-26 08:00:00 9.8 8 Nordeste 12 Nordeste 0 952.8 0.5 54
2019-01-26 07:00:00 9.4 6 Nordeste 10 Nordeste 0 952.6 0.1 62
2019-01-26 06:00:00 8.8 6 Nordeste 10 Norte 0 952.3 -0.3 68
2019-01-26 05:00:00 10.1 8 Nordeste 14 Nordeste 0 952.3 -0.1 66
2019-01-26 04:00:00 10.5 7 Nordeste 12 Nordeste 0 952.5 -0.3 65
2019-01-26 03:00:00 11.2 5 Norte 13 Norte 0 952.6 0.2 63
2019-01-26 02:00:00 12.1 8 Nordeste 16 Nordeste 0 952.4 0.1 60
2019-01-26 01:00:00 11.7 5 Nordeste 18 Norte 0 952.8 0.4 65
2019-01-26 00:00:00 12.6 12 Nordeste 23 Nordeste 0 952.4 0.3 64
2019-01-25 23:00:00 12.9 10 Nordeste 29 Nordeste 0 952.3 0.7 65
2019-01-25 22:00:00 13.1 15 Norte 34 Norte 0 952.4 1 72
2019-01-25 21:00:00 13.1 24 Norte 35 Norte 0 952.1 0.8 73
2019-01-25 20:00:00 13.9 21 Norte 33 Nordeste 0 951.6 0.3 67
2019-01-25 19:00:00 14.9 23 Norte 31 Nordeste 0 951.4 0.1 64
2019-01-25 18:00:00 17 12 Norte 21 Nordeste 0 951.3 -0.2 57
2019-01-25 17:00:00 20.1 4 Sudoeste 12 Sudoeste 0 951.3 -0.6 45
2019-01-25 16:00:00 20.2 6 Sur 14 Sur 0 951.3 -0.8 47
2019-01-25 15:00:00 19.6 5 Sur 15 Sur 0 951.5 -0.9 46
2019-01-25 14:00:00 19 9 Sudoeste 17 Sudoeste 0 951.9 0 47
2019-01-25 13:00:00 18.6 7 Sudoeste 16 Sudeste 0 952.1 0.7 49
2019-01-25 12:00:00 17.4 11 Sudeste 21 Sudeste 0 952.4 1.6 52
2019-01-25 11:00:00 15.3 9 Sudeste 19 Sudeste 0 951.9 1.6 56
2019-01-25 10:00:00 12.2 6 Nordeste 9 Nordeste 0 951.4 1.8 70
2019-01-25 09:00:00 8.5 3 Sudeste 12 Nordeste 0 950.8 1.7 80
2019-01-25 08:00:00 8.8 6 Nordeste 7 Nordeste 0 950.3 1.3 77
2019-01-25 07:00:00 9.7 3 Oeste 11 Nordeste 0 949.6 0.4 74
2019-01-25 06:00:00 10.6 5 Norte 9 Norte 0 949.1 -0.1 69
2019-01-25 05:00:00 11.7 3 Norte 8 Norte 0 949 -0.1 63
2019-01-25 04:00:00 11.8 5 Norte 11 Norte 0 949.2 0.1 65
2019-01-25 03:00:00 12 9 Nordeste 23 Nordeste 0 949.2 0.3 68
2019-01-25 02:00:00 12.2 9 Nordeste 45 Nordeste 0 949.1 0.3 70
2019-01-25 01:00:00 11.8 31 Norte 49 Nordeste 0 949.1 0.3 77
2019-01-25 00:00:00 11.6 32 Nordeste -- -- 0 948.9 0.7 84
2019-01-24 23:00:00 11.5 27 Norte 39 Norte 0 948.8 0.6 91
2019-01-24 22:00:00 11.1 13 Nordeste 33 Norte 0 948.8 1 94
2019-01-24 21:00:00 11.6 13 Norte 23 Norte 0 948.2 0.9 90
2019-01-24 20:00:00 11.3 6 Oeste 9 Oeste 0 948.2 1.3 89
2019-01-24 19:00:00 13.4 4 Noroeste 21 Norte 0 947.8 1.4 76
2019-01-24 18:00:00 15.2 9 Norte 23 Noroeste 0 947.3 1 64
2019-01-24 17:00:00 15.1 -- -- -- -- 0 946.9 0.6 65
2019-01-24 16:00:00 16.2 9 Norte -- -- 0 946.4 -0.1 64
2019-01-24 15:00:00 15 -- -- -- -- 0 946.3 -0.6 65
2019-01-24 14:00:00 13.5 21 Nordeste 63 Nordeste 0 946.3 -0.6 73
2019-01-24 13:00:00 12.8 31 Norte 54 Norte 0 946.5 0.3 77
2019-01-24 12:00:00 11.4 34 Norte 59 Norte 0 946.9 0.8 85
2019-01-24 11:00:00 10.4 20 Norte 56 Noroeste 0 946.9 0.8 92
2019-01-24 10:00:00 9.6 30 Norte 57 Norte 0 946.2 0.4 96
2019-01-24 09:00:00 9.2 32 Norte 58 Norte 0 946.1 -0.1 97
2019-01-24 08:00:00 9.3 30 Norte 63 Norte 0 946.1 -0.4 96
2019-01-24 07:00:00 9.4 41 Norte 68 Norte 0 945.8 -1.4 95
2019-01-24 06:00:00 9.5 32 Norte 57 Norte 0 946.2 -1.5 96
2019-01-24 05:00:00 9.5 36 Norte 65 Norte 0 946.5 -1.7 95
2019-01-24 04:00:00 9.5 40 Norte 64 Norte 0 947.2 -1.6 95
2019-01-24 03:00:00 9.7 36 Norte 57 Norte 0 947.7 -1.2 94
2019-01-24 02:00:00 9.7 26 Norte 48 Norte 0 948.2 -0.6 95
2019-01-24 01:00:00 9.9 16 Norte 41 Noroeste 0 948.8 0.2 94
2019-01-24 00:00:00 10 14 Norte 37 Norte 0 948.9 0.2 93